createdAt,value
2017-02-12T09:12:35.436Z,55.35
2017-02-12T09:13:45.155Z,54.9
2017-02-12T09:14:54.879Z,54.14
2017-02-12T09:16:04.163Z,53.66
2017-02-12T09:17:14.313Z,51.84
2017-02-12T09:18:23.641Z,50.21
2017-02-12T09:19:33.812Z,48.47
2017-02-12T09:20:43.971Z,47.52
2017-02-12T09:21:54.577Z,47.49
2017-02-12T09:23:04.743Z,47.32
2017-02-12T09:24:14.507Z,46.37
2017-02-12T09:25:23.786Z,46.17
2017-02-12T09:26:33.066Z,45.6
2017-02-12T09:27:42.787Z,44.55
2017-02-12T09:28:53.387Z,43.79
2017-02-12T09:30:03.601Z,43.38
2017-02-12T09:31:14.198Z,42.9
2017-02-12T09:32:24.798Z,42.61
2017-02-12T09:33:34.512Z,42.71
2017-02-12T09:34:44.690Z,42.61
2017-02-12T09:35:54.026Z,42.24
2017-02-12T09:37:04.194Z,41.85
2017-02-12T09:38:14.798Z,41.56
2017-02-12T09:39:24.523Z,40.8
2017-02-12T09:40:33.803Z,40.8
2017-02-12T09:41:43.133Z,39.75
2017-02-12T09:42:54.178Z,39.65
2017-02-12T09:44:03.899Z,40.11
2017-02-12T09:45:13.636Z,41.06
2017-02-12T09:46:24.237Z,41.74
2017-02-12T09:47:33.569Z,42.33
2017-02-12T09:48:43.300Z,43
2017-02-12T09:49:53.014Z,43.57
2017-02-12T09:51:02.302Z,43.38
2017-02-12T09:52:12.026Z,44.15
2017-02-12T09:53:21.356Z,43.98
2017-02-12T09:54:30.629Z,44.45
2017-02-12T09:55:40.359Z,44.93
2017-02-12T09:56:49.648Z,44.93
2017-02-12T09:57:59.377Z,45.6
2017-02-12T09:59:09.303Z,45.41
2017-02-12T10:00:19.023Z,45.72
2017-02-12T10:01:29.192Z,45.53
2017-02-12T10:02:38.922Z,45.91
2017-02-12T10:03:49.077Z,46.48
2017-02-12T10:04:58.856Z,46.1
2017-02-12T10:06:09.493Z,46.67
2017-02-12T10:07:19.649Z,46.48
2017-02-12T10:08:29.376Z,46.61
2017-02-12T10:09:39.103Z,46.41
2017-02-12T10:10:49.770Z,46.22
2017-02-12T10:11:59.493Z,46.41
2017-02-12T10:13:09.222Z,46.61
2017-02-12T10:14:20.270Z,46.41
2017-02-12T10:15:29.990Z,46.62
2017-02-12T10:16:40.215Z,46.91
2017-02-12T10:17:50.389Z,47.01
2017-02-12T10:19:00.122Z,47.01
2017-02-12T10:20:09.403Z,47.11
2017-02-12T10:21:18.688Z,47.11
2017-02-12T10:22:28.027Z,46.94
2017-02-12T10:23:38.630Z,46.94
2017-02-12T10:24:48.362Z,47.03
2017-02-12T10:25:58.530Z,46.84
2017-02-12T10:27:08.265Z,46.94
2017-02-12T10:28:18.474Z,46.94
2017-02-12T10:29:27.753Z,47.13
2017-02-12T10:30:37.913Z,46.96
2017-02-12T10:31:47.200Z,46.86
2017-02-12T10:32:57.800Z,47.15
2017-02-12T10:34:08.020Z,47.06
2017-02-12T10:35:18.180Z,46.96
2017-02-12T10:36:27.468Z,47.15
2017-02-12T10:37:37.628Z,46.96
2017-02-12T10:38:46.918Z,46.96
2017-02-12T10:39:56.698Z,46.96
2017-02-12T10:41:07.740Z,46.98
2017-02-12T10:42:17.026Z,46.86
2017-02-12T10:43:27.202Z,46.6
2017-02-12T10:44:37.811Z,46.5
2017-02-12T10:45:48.185Z,46.6
2017-02-12T10:46:57.915Z,46.6
2017-02-12T10:48:07.199Z,46.6
2017-02-12T10:49:16.529Z,46.7
2017-02-12T10:50:26.699Z,46.72
2017-02-12T10:51:36.473Z,46.43
2017-02-12T10:52:47.512Z,46.81
2017-02-12T10:53:57.690Z,46.91
2017-02-12T10:55:07.418Z,46.72
2017-02-12T10:56:17.153Z,47.1
2017-02-12T10:57:26.930Z,46.62
2017-02-12T10:58:36.659Z,46.24
2017-02-12T10:59:46.388Z,46.34
2017-02-12T11:00:55.677Z,46.34
2017-02-12T11:02:05.417Z,46.36
2017-02-12T11:03:15.198Z,46.53
2017-02-12T11:04:25.368Z,46.36
2017-02-12T11:05:36.006Z,46.26
2017-02-12T11:06:45.299Z,46.17
2017-02-12T11:07:55.025Z,46.45
2017-02-12T11:09:05.689Z,46.74
2017-02-12T11:10:15.867Z,46.65
2017-02-12T11:11:25.602Z,46.17
2017-02-12T11:12:35.769Z,46.65
2017-02-12T11:13:45.502Z,46.07
2017-02-12T11:14:55.720Z,46.07
2017-02-12T11:16:05.449Z,46.36
2017-02-12T11:17:15.185Z,46.38
2017-02-12T11:18:24.467Z,46.38
2017-02-12T11:19:34.636Z,46.28
2017-02-12T11:20:44.412Z,46.19
2017-02-12T11:21:55.023Z,46
2017-02-12T11:23:04.756Z,46.28
2017-02-12T11:24:14.913Z,46.19
2017-02-12T11:25:24.201Z,45.81
2017-02-12T11:26:33.987Z,46
2017-02-12T11:27:44.595Z,45.71
2017-02-12T11:28:55.222Z,45.81
2017-02-12T11:30:06.278Z,46
2017-02-12T11:31:16.426Z,46.09
2017-02-12T11:32:27.087Z,45.81
2017-02-12T11:33:36.802Z,46
2017-02-12T11:34:46.979Z,45.9
2017-02-12T11:35:56.857Z,46.09
2017-02-12T11:37:06.590Z,46
2017-02-12T11:38:16.373Z,45.61
2017-02-12T11:39:26.099Z,45.81
2017-02-12T11:40:36.266Z,45.9
2017-02-12T11:41:46.438Z,46.12
2017-02-12T11:42:56.168Z,45.64
2017-02-12T11:44:06.017Z,45.61
2017-02-12T11:45:16.434Z,45.71
2017-02-12T11:46:26.599Z,45.45
2017-02-12T11:47:35.879Z,45.73
2017-02-12T11:48:45.610Z,45.64
2017-02-12T11:49:55.829Z,45.83
2017-02-12T11:51:06.004Z,45.83
2017-02-12T11:52:16.615Z,45.83
2017-02-12T11:53:27.217Z,45.83
2017-02-12T11:54:36.940Z,45.25
2017-02-12T11:55:46.279Z,45.15
2017-02-12T11:56:56.442Z,45.25
2017-02-12T11:58:06.178Z,45.35
2017-02-12T11:59:15.907Z,45.45
2017-02-12T12:00:26.081Z,45.06
2017-02-12T12:01:35.421Z,45.25
2017-02-12T12:02:45.148Z,45.06
2017-02-12T12:03:54.884Z,45.35
2017-02-12T12:05:05.494Z,44.87
2017-02-12T12:06:15.230Z,45.06
2017-02-12T12:07:25.453Z,45.06
2017-02-12T12:08:37.233Z,44.77
2017-02-12T12:09:50.784Z,45.37
2017-02-12T12:11:00.524Z,44.6
2017-02-12T12:12:10.684Z,44.58
2017-02-12T12:13:21.334Z,44.6
2017-02-12T12:14:31.504Z,44.79
2017-02-12T12:15:41.315Z,44.51
2017-02-12T12:16:51.050Z,44.79
2017-02-12T12:18:00.342Z,44.79
2017-02-12T12:19:10.125Z,44.77
2017-02-12T12:20:20.298Z,44.6
2017-02-12T12:21:30.031Z,44.7
2017-02-12T12:22:39.755Z,44.79
2017-02-12T12:23:50.801Z,44.79
2017-02-12T12:25:01.458Z,44.6
2017-02-12T12:26:11.194Z,44.79
2017-02-12T12:27:21.369Z,44.31
2017-02-12T12:28:31.098Z,44.41
2017-02-12T12:29:40.816Z,44.6
2017-02-12T12:30:51.484Z,44.6
2017-02-12T12:32:01.674Z,44.41
2017-02-12T12:33:11.837Z,44.89
2017-02-12T12:34:22.879Z,44.7
2017-02-12T12:35:32.160Z,44.79
2017-02-12T12:36:42.383Z,45.28
2017-02-12T12:37:52.536Z,45.37
2017-02-12T12:39:01.829Z,44.6
2017-02-12T12:40:12.442Z,44.7
2017-02-12T12:41:22.167Z,44.7
2017-02-12T12:42:31.949Z,44.7
2017-02-12T12:43:41.678Z,44.22
2017-02-12T12:44:51.413Z,44.51
2017-02-12T12:46:01.578Z,44.51
2017-02-12T12:47:11.310Z,44.22
2017-02-12T12:48:22.074Z,44.02
2017-02-12T12:49:31.360Z,44.12
2017-02-12T12:50:41.527Z,43.84
2017-02-12T12:51:51.256Z,43.93
2017-02-12T12:53:01.422Z,43.64
2017-02-12T12:54:12.229Z,43.74
2017-02-12T12:55:21.947Z,43.74
2017-02-12T12:56:31.238Z,43.74
2017-02-12T12:57:41.400Z,43.64
2017-02-12T12:58:51.565Z,43.84
2017-02-12T13:00:01.346Z,43.54
2017-02-12T13:01:11.068Z,43.74
2017-02-12T13:02:21.232Z,43.64
2017-02-12T13:03:32.266Z,43.74
2017-02-12T13:04:42.438Z,43.93
2017-02-12T13:05:52.656Z,43.74
2017-02-12T13:07:01.938Z,43.64
2017-02-12T13:08:11.662Z,43.54
2017-02-12T13:09:20.952Z,43.43
2017-02-12T13:10:30.680Z,43.33
2017-02-12T13:11:40.010Z,43.43
2017-02-12T13:12:50.195Z,43.45
2017-02-12T13:14:00.369Z,43.45
2017-02-12T13:15:10.541Z,43.43
2017-02-12T13:16:19.830Z,43.14
2017-02-12T13:17:29.616Z,43.14
2017-02-12T13:18:38.904Z,43.04
2017-02-12T13:19:49.070Z,43.04
2017-02-12T13:20:58.371Z,42.94
2017-02-12T13:22:08.983Z,43.04
2017-02-12T13:23:18.758Z,43.04
2017-02-12T13:24:28.487Z,43.04
2017-02-12T13:25:38.224Z,43.04
2017-02-12T13:26:47.524Z,42.94
2017-02-12T13:27:57.247Z,42.94
2017-02-12T13:29:07.038Z,43.04
2017-02-12T13:30:17.209Z,43.04
2017-02-12T13:31:27.807Z,43.04
2017-02-12T13:32:37.983Z,43.04
2017-02-12T13:33:47.717Z,43.04
2017-02-12T13:34:58.368Z,42.85
2017-02-12T13:36:09.864Z,43.23
2017-02-12T13:37:20.470Z,43.43
2017-02-12T13:38:31.081Z,43.52
2017-02-12T13:39:40.407Z,43.71
2017-02-12T13:40:50.623Z,43.91
2017-02-12T13:41:59.908Z,43.71
2017-02-12T13:43:09.636Z,43.71
2017-02-12T13:44:19.365Z,43.91
2017-02-12T13:45:29.523Z,43.81
2017-02-12T13:46:38.860Z,44
2017-02-12T13:47:48.582Z,44.2
2017-02-12T13:48:57.864Z,44.48
2017-02-12T13:50:07.607Z,44.48
2017-02-12T13:51:17.761Z,44.29
2017-02-12T13:52:27.987Z,44.27
2017-02-12T13:53:37.723Z,44.08
2017-02-12T13:54:48.325Z,44.38
2017-02-12T13:55:58.059Z,44.38
2017-02-12T13:57:08.232Z,44.56
2017-02-12T13:58:18.165Z,44.75
2017-02-12T13:59:27.462Z,44.65
2017-02-12T14:00:37.632Z,44.68
2017-02-12T14:01:47.805Z,45.23
2017-02-12T14:02:57.090Z,44.96
2017-02-12T14:04:06.431Z,44.84
2017-02-12T14:05:16.165Z,45.32
2017-02-12T14:06:26.342Z,45.04
2017-02-12T14:07:36.953Z,45.71
2017-02-12T14:08:46.679Z,45.61
2017-02-12T14:09:56.501Z,45.61
2017-02-12T14:11:06.222Z,45.71
2017-02-12T14:12:15.503Z,45.9
2017-02-12T14:13:26.546Z,45.61
2017-02-12T14:14:36.270Z,46
2017-02-12T14:15:46.047Z,45.81
2017-02-12T14:16:56.223Z,46
2017-02-12T14:18:05.512Z,46.19
2017-02-12T14:19:15.693Z,45.14
2017-02-12T14:20:24.995Z,43.5
2017-02-12T14:21:34.764Z,42.71
2017-02-12T14:22:44.488Z,41.73
2017-02-12T14:23:53.782Z,41.04
2017-02-12T14:25:03.994Z,40.17
2017-02-12T14:26:14.170Z,40.16
2017-02-12T14:27:24.407Z,38.98
2017-02-12T14:28:33.691Z,38.68
2017-02-12T14:29:43.482Z,38.78
2017-02-12T14:30:53.274Z,38.85
2017-02-12T14:32:03.439Z,38.66
2017-02-12T14:33:12.776Z,38.85
2017-02-12T14:34:22.989Z,40.17
2017-02-12T14:35:32.723Z,41.82
2017-02-12T14:36:42.904Z,42.8
2017-02-12T14:37:52.629Z,43.76
2017-02-12T14:39:02.850Z,44.04
2017-02-12T14:40:13.022Z,44.64
2017-02-12T14:41:22.305Z,44.93
2017-02-12T14:42:32.030Z,45.21
2017-02-12T14:43:42.209Z,45.5
2017-02-12T14:44:52.871Z,45.79
2017-02-12T14:46:02.157Z,46.1
2017-02-12T14:47:12.333Z,46.29
2017-02-12T14:48:21.634Z,46.19
2017-02-12T14:49:31.809Z,46.67
2017-02-12T14:50:41.593Z,46.67
2017-02-12T14:51:51.320Z,46.67
2017-02-12T14:53:01.052Z,46.48
2017-02-12T14:54:11.205Z,46.19
2017-02-12T14:55:21.387Z,46.77
2017-02-12T14:56:31.172Z,46.77
2017-02-12T14:57:41.348Z,47.06
2017-02-12T14:58:51.082Z,46.89
2017-02-12T15:00:00.816Z,46.98
2017-02-12T15:01:10.988Z,47.34
2017-02-12T15:02:21.653Z,47.25
2017-02-12T15:03:31.813Z,47.27
2017-02-12T15:04:42.426Z,46.96
2017-02-12T15:05:52.153Z,47.25
2017-02-12T15:07:02.759Z,47.27
2017-02-12T15:08:13.402Z,47.85
2017-02-12T15:09:23.120Z,47.75
2017-02-12T15:10:32.846Z,47.56
2017-02-12T15:11:42.567Z,47.94
2017-02-12T15:12:52.736Z,47.85
2017-02-12T15:14:03.066Z,48.04
2017-02-12T15:15:12.784Z,48.23
2017-02-12T15:16:22.075Z,48.13
2017-02-12T15:17:31.820Z,48.33
2017-02-12T15:18:42.425Z,48.33
2017-02-12T15:19:52.199Z,48.04
2017-02-12T15:21:01.493Z,48.23
2017-02-12T15:22:11.668Z,48.33
2017-02-12T15:23:21.842Z,48.33
2017-02-12T15:24:32.636Z,47.94
2017-02-12T15:25:42.503Z,48.13
2017-02-12T15:26:52.668Z,48.13
2017-02-12T15:28:02.399Z,48.33
2017-02-12T15:29:12.130Z,48.33
2017-02-12T15:30:21.853Z,48.23
2017-02-12T15:31:31.342Z,48.33
2017-02-12T15:32:41.063Z,48.43
2017-02-12T15:33:50.836Z,48.13
2017-02-12T15:35:00.570Z,48.13
2017-02-12T15:36:11.187Z,48.23
2017-02-12T15:37:21.433Z,48.13
2017-02-12T15:38:31.602Z,48.23
2017-02-12T15:39:41.827Z,48.13
2017-02-12T15:40:51.554Z,48.23
2017-02-12T15:42:02.207Z,48.33
2017-02-12T15:43:11.939Z,48.33
2017-02-12T15:44:21.671Z,48.33
2017-02-12T15:45:31.012Z,48.04
2017-02-12T15:46:41.189Z,47.75
2017-02-12T15:47:50.931Z,47.56
2017-02-12T15:49:00.660Z,47.66
2017-02-12T15:50:10.385Z,47.85
2017-02-12T15:51:20.175Z,47.56
2017-02-12T15:52:30.328Z,48.11
2017-02-12T15:53:39.616Z,48.23
2017-02-12T15:54:48.908Z,48.23
2017-02-12T15:55:59.087Z,48.23
2017-02-12T15:57:09.304Z,48.21
2017-02-12T15:58:19.477Z,48.11
2017-02-12T15:59:29.659Z,48.23
2017-02-12T16:00:39.399Z,48.23
2017-02-12T16:01:49.595Z,48.23
2017-02-12T16:03:00.265Z,48.23
2017-02-12T16:04:10.423Z,48.3
2017-02-12T16:05:19.709Z,48.43
2017-02-12T16:06:30.322Z,48.13
2017-02-12T16:07:40.494Z,48.52
2017-02-12T16:08:50.871Z,48.71
2017-02-12T16:10:01.486Z,48.69
2017-02-12T16:11:12.097Z,48.61
2017-02-12T16:12:22.275Z,48.69
2017-02-12T16:13:31.556Z,48.49
2017-02-12T16:14:41.336Z,48.3
2017-02-12T16:15:51.507Z,48.21
2017-02-12T16:17:01.236Z,48.52
2017-02-12T16:18:11.454Z,48.59
2017-02-12T16:19:21.633Z,48.78
2017-02-12T16:20:31.992Z,48.78
2017-02-12T16:21:41.726Z,48.21
2017-02-12T16:22:51.902Z,48.3
2017-02-12T16:24:02.516Z,48.49
2017-02-12T16:25:12.693Z,47.92
2017-02-12T16:26:23.270Z,47.82
2017-02-12T16:27:32.570Z,48.21
2017-02-12T16:28:43.208Z,48.21
2017-02-12T16:29:53.397Z,48.4
2017-02-12T16:31:03.181Z,48.3
2017-02-12T16:32:14.292Z,48.21
2017-02-12T16:33:24.921Z,48.11
2017-02-12T16:34:35.537Z,48.11
2017-02-12T16:35:45.276Z,48.11
2017-02-12T16:36:55.894Z,48.3
2017-02-12T16:38:06.116Z,48.4
2017-02-12T16:39:16.725Z,48.02
2017-02-12T16:40:27.333Z,48.21
2017-02-12T16:41:37.062Z,48.21
2017-02-12T16:42:47.250Z,48.11
2017-02-12T16:43:57.032Z,48.02
2017-02-12T16:45:06.761Z,48.21
2017-02-12T16:46:16.490Z,47.82
2017-02-12T16:47:25.779Z,48.21
2017-02-12T16:48:35.502Z,47.34
2017-02-12T16:49:46.157Z,47.53
2017-02-12T16:50:56.770Z,48.02
2017-02-12T16:52:06.498Z,47.92
2017-02-12T16:53:16.664Z,47.53
2017-02-12T16:54:26.842Z,48.02
2017-02-12T16:55:36.624Z,47.63
2017-02-12T16:56:45.912Z,48.02
2017-02-12T16:57:55.655Z,47.44
2017-02-12T16:59:05.687Z,47.63
2017-02-12T17:00:17.514Z,47.53
2017-02-12T17:01:29.512Z,47.73
2017-02-12T17:02:41.084Z,47.73
2017-02-12T17:03:53.152Z,47.63
2017-02-12T17:05:04.711Z,47.44
2017-02-12T17:06:17.013Z,47.53
2017-02-12T17:07:28.274Z,47.73
2017-02-12T17:08:41.583Z,48.21
2017-02-12T17:09:53.212Z,48.3
2017-02-12T17:11:04.646Z,48.4
2017-02-12T17:12:15.923Z,48.11
2017-02-12T17:13:26.399Z,48.3
2017-02-12T17:14:39.373Z,48.4
2017-02-12T17:15:49.932Z,48.21
2017-02-12T17:17:01.713Z,48.3
2017-02-12T17:18:11.436Z,48.21
2017-02-12T17:19:21.658Z,48.13
2017-02-12T17:20:31.727Z,48.43
2017-02-12T17:21:44.232Z,48.43
2017-02-12T17:22:56.054Z,48.33
2017-02-12T17:24:08.762Z,48.23
2017-02-12T17:25:21.219Z,48.23
2017-02-12T17:26:32.984Z,48.04
2017-02-12T17:27:45.126Z,48.52
2017-02-12T17:28:57.180Z,48.33
2017-02-12T17:30:07.741Z,47.85
2017-02-12T17:31:18.846Z,48.35
2017-02-12T17:32:32.422Z,47.58
2017-02-12T17:33:44.188Z,47.97
2017-02-12T17:34:55.941Z,47.87
2017-02-12T17:36:07.858Z,47.77
2017-02-12T17:37:18.799Z,47.39
2017-02-12T17:38:29.514Z,47.58
2017-02-12T17:39:39.687Z,47.68
2017-02-12T17:40:49.916Z,47.58
2017-02-12T17:41:59.662Z,47.77
2017-02-12T17:43:10.345Z,47.71
2017-02-12T17:44:20.956Z,47.71
2017-02-12T17:45:31.574Z,47.8
2017-02-12T17:46:40.918Z,47.41
2017-02-12T17:47:51.103Z,47.51
2017-02-12T17:49:01.723Z,47.41
2017-02-12T17:50:11.921Z,47.61
2017-02-12T17:51:22.117Z,47.13
2017-02-12T17:52:33.142Z,46.94
2017-02-12T17:53:45.374Z,47.32
2017-02-12T17:54:56.062Z,47.13
2017-02-12T17:56:07.206Z,47.03
2017-02-12T17:57:18.477Z,46.84
2017-02-12T17:58:29.858Z,46.84
2017-02-12T17:59:42.750Z,47.53
2017-02-12T18:00:54.869Z,47.53
2017-02-12T18:02:08.061Z,47.34
2017-02-12T18:03:17.866Z,47.05
2017-02-12T18:04:28.791Z,47.05
2017-02-12T18:05:41.312Z,47.25
2017-02-12T18:06:52.624Z,46.96
2017-02-12T18:08:03.070Z,47.05
2017-02-12T18:09:12.804Z,47.05
2017-02-12T18:10:23.692Z,47.25
2017-02-12T18:11:34.228Z,47.05
2017-02-12T18:12:46.223Z,46.96
2017-02-12T18:13:58.083Z,46.86
2017-02-12T18:15:09.110Z,47.05
2017-02-12T18:16:21.035Z,46.96
2017-02-12T18:17:32.200Z,46.96
2017-02-12T18:18:43.935Z,46.96
2017-02-12T18:19:55.058Z,47.15
2017-02-12T18:21:07.316Z,47.05
2017-02-12T18:22:19.062Z,47.05
2017-02-12T18:23:29.810Z,47.05
2017-02-12T18:24:42.467Z,47.05
2017-02-12T18:25:54.704Z,46.96
2017-02-12T18:27:07.250Z,47.05
2017-02-12T18:28:17.757Z,46.96
2017-02-12T18:29:27.580Z,46.67
2017-02-12T18:30:37.862Z,47.05
2017-02-12T18:31:49.391Z,46.96
2017-02-12T18:33:01.017Z,47.15
2017-02-12T18:34:12.829Z,47.05
2017-02-12T18:35:23.271Z,47.25
2017-02-12T18:36:35.137Z,47.15
2017-02-12T18:37:45.754Z,47.25
2017-02-12T18:38:56.426Z,47.15
2017-02-12T18:40:08.879Z,47.15
2017-02-12T18:41:21.340Z,46.77
2017-02-12T18:42:33.770Z,47.05
2017-02-12T18:43:44.009Z,46.86
2017-02-12T18:44:54.449Z,46.77
2017-02-12T18:46:05.021Z,46.77
2017-02-12T18:47:16.653Z,47.05
2017-02-12T18:48:26.934Z,47.15
2017-02-12T18:49:37.261Z,46.96
2017-02-12T18:50:47.458Z,47.05
2017-02-12T18:51:59.307Z,47.05
2017-02-12T18:53:12.745Z,46.86
2017-02-12T18:54:23.682Z,47.15
2017-02-12T18:55:33.633Z,47.05
2017-02-12T18:56:43.656Z,47.15
2017-02-12T18:57:54.077Z,46.96
2017-02-12T18:59:04.050Z,46.96
2017-02-12T19:00:14.847Z,47.05
2017-02-12T19:01:26.045Z,47.15
2017-02-12T19:02:37.622Z,47.05
2017-02-12T19:03:48.728Z,47.05
2017-02-12T19:04:59.937Z,47.05
2017-02-12T19:06:10.322Z,46.96
2017-02-12T19:07:21.711Z,47.05
2017-02-12T19:08:31.843Z,47.15
2017-02-12T19:09:42.952Z,47.05
2017-02-12T19:10:52.712Z,47.05
2017-02-12T19:12:03.816Z,47.05
2017-02-12T19:13:14.345Z,47.05
2017-02-12T19:14:25.914Z,47.05
2017-02-12T19:15:36.069Z,47.05
2017-02-12T19:16:46.213Z,47.15
2017-02-12T19:17:57.355Z,47.05
2017-02-12T19:19:08.079Z,47.05
2017-02-12T19:20:18.247Z,47.15
2017-02-12T19:21:28.349Z,47.05
2017-02-12T19:22:38.071Z,47.25
2017-02-12T19:23:48.000Z,47.05
2017-02-12T19:24:59.055Z,47.15
2017-02-12T19:26:08.742Z,47.15
2017-02-12T19:27:20.225Z,47.15
2017-02-12T19:28:31.207Z,47.15
2017-02-12T19:29:41.202Z,47.15
2017-02-12T19:30:51.508Z,47.15
2017-02-12T19:32:01.290Z,46.98
2017-02-12T19:33:11.575Z,46.98
2017-02-12T19:34:22.503Z,47.15
2017-02-12T19:35:33.668Z,47.08
2017-02-12T19:36:44.587Z,46.96
2017-02-12T19:37:55.406Z,46.96
2017-02-12T19:39:05.840Z,46.86
2017-02-12T19:40:15.839Z,47.05
2017-02-12T19:41:26.900Z,47.05
2017-02-12T19:42:37.629Z,46.96
2017-02-12T19:43:48.796Z,47.05
2017-02-12T19:44:58.542Z,46.96
2017-02-12T19:46:09.053Z,47.15
2017-02-12T19:47:19.328Z,47.05
2017-02-12T19:48:30.053Z,47.15
2017-02-12T19:49:40.759Z,47.15
2017-02-12T19:50:52.321Z,47.15
2017-02-12T19:52:03.703Z,46.96
2017-02-12T19:53:14.366Z,47.05
2017-02-12T19:54:26.339Z,47.25
2017-02-12T19:55:36.536Z,47.05
2017-02-12T19:56:47.318Z,47.05
2017-02-12T19:57:58.180Z,46.86
2017-02-12T19:59:09.585Z,47.15
2017-02-12T20:00:22.923Z,47.05
2017-02-12T20:01:34.511Z,47.05
2017-02-12T20:02:47.722Z,46.89
2017-02-12T20:03:58.789Z,47.15
2017-02-12T20:05:09.131Z,47.08
2017-02-12T20:06:20.127Z,46.98
2017-02-12T20:07:32.689Z,47.15
2017-02-12T20:08:45.674Z,47.15
2017-02-12T20:09:59.843Z,47.08
2017-02-12T20:11:12.103Z,47.25
2017-02-12T20:12:23.958Z,47.08
2017-02-12T20:13:36.259Z,47.08
2017-02-12T20:14:47.655Z,47.15
2017-02-12T20:16:01.929Z,47.25
2017-02-12T20:17:13.608Z,46.89
2017-02-12T20:18:26.120Z,44.37
2017-02-12T20:19:38.218Z,42.13
2017-02-12T20:20:50.384Z,41.06
2017-02-12T20:22:02.243Z,39.87
2017-02-12T20:23:13.280Z,39.28
2017-02-12T20:24:25.073Z,38.78
2017-02-12T20:25:38.359Z,38.47
2017-02-12T20:26:50.958Z,37.68
2017-02-12T20:28:02.351Z,37.97
2017-02-12T20:29:13.751Z,37.66
2017-02-12T20:30:26.765Z,37.93
2017-02-12T20:31:38.219Z,37.55
2017-02-12T20:32:49.643Z,37.84
2017-02-12T20:34:01.067Z,38.49
2017-02-12T20:35:13.557Z,38.78
2017-02-12T20:36:26.243Z,38.2
2017-02-12T20:37:38.196Z,38.87
2017-02-12T20:38:50.176Z,38.56
2017-02-12T20:40:02.669Z,38.85
2017-02-12T20:41:14.604Z,38.66
2017-02-12T20:42:26.208Z,38.56
2017-02-12T20:43:37.589Z,38.73
2017-02-12T20:44:49.576Z,39.88
2017-02-12T20:46:02.093Z,39.02
2017-02-12T20:47:12.950Z,38.62
2017-02-12T20:48:23.995Z,39.67
2017-02-12T20:49:36.495Z,39.75
2017-02-12T20:50:47.893Z,39.56
2017-02-12T20:51:59.285Z,39.84
2017-02-12T20:53:10.712Z,42.41
2017-02-12T20:54:22.693Z,44.06
2017-02-12T20:55:33.005Z,44.65
2017-02-12T20:56:45.452Z,45.63
2017-02-12T20:57:56.747Z,46.87
2017-02-12T20:59:08.536Z,46.61
2017-02-12T21:00:20.286Z,47.18
2017-02-12T21:01:32.267Z,47.66
2017-02-12T21:02:42.410Z,47.11
2017-02-12T21:03:51.898Z,47.49
2017-02-12T21:05:03.018Z,47.97
2017-02-12T21:06:13.703Z,47.99
2017-02-12T21:07:24.802Z,47.71
2017-02-12T21:08:35.058Z,48.28
2017-02-12T21:09:44.828Z,48.57
2017-02-12T21:10:55.473Z,48.38
2017-02-12T21:12:05.442Z,48.28
2017-02-12T21:13:15.201Z,48.38
2017-02-12T21:14:24.525Z,48.68
2017-02-12T21:15:34.289Z,48.39
2017-02-12T21:16:44.492Z,48.3
2017-02-12T21:17:54.747Z,48.59
2017-02-12T21:19:04.502Z,48.78
2017-02-12T21:20:14.247Z,48.68
2017-02-12T21:21:24.020Z,48.68
2017-02-12T21:22:33.782Z,48.88
2017-02-12T21:23:43.139Z,49.16
2017-02-12T21:24:52.468Z,48.97
2017-02-12T21:26:02.680Z,49.16
2017-02-12T21:27:12.892Z,48.49
2017-02-12T21:28:23.102Z,48.71
2017-02-12T21:29:32.912Z,49
2017-02-12T21:30:43.109Z,48.61
2017-02-12T21:31:52.859Z,48.9
2017-02-12T21:33:02.174Z,49
2017-02-12T21:34:11.501Z,49.19
2017-02-12T21:35:21.314Z,49.38
2017-02-12T21:36:31.065Z,48.9
2017-02-12T21:37:40.385Z,49.38
2017-02-12T21:38:50.584Z,49.29
2017-02-12T21:40:00.771Z,49
2017-02-12T21:41:10.592Z,49.19
2017-02-12T21:42:20.366Z,49.19
2017-02-12T21:43:30.152Z,49
2017-02-12T21:44:39.516Z,49.09
2017-02-12T21:45:49.719Z,49
2017-02-12T21:46:59.960Z,49.29
2017-02-12T21:48:09.295Z,49.29
2017-02-12T21:49:19.040Z,49.19
2017-02-12T21:50:29.240Z,48.9
2017-02-12T21:51:38.569Z,49.38
2017-02-12T21:52:49.719Z,49
2017-02-12T21:53:59.075Z,49.11
2017-02-12T21:55:08.825Z,49
2017-02-12T21:56:19.018Z,49.09
2017-02-12T21:57:28.792Z,49.19
2017-02-12T21:58:38.145Z,48.71
2017-02-12T21:59:47.919Z,48.73
2017-02-12T22:00:57.707Z,48.83
2017-02-12T22:02:07.477Z,48.9
2017-02-12T22:03:17.217Z,48.73
2017-02-12T22:04:26.603Z,48.93
2017-02-12T22:05:37.228Z,48.64
2017-02-12T22:06:47.037Z,48.73
2017-02-12T22:07:57.227Z,48.73
2017-02-12T22:09:06.536Z,48.73
2017-02-12T22:10:16.348Z,48.73
2017-02-12T22:11:26.546Z,49.02
2017-02-12T22:12:36.298Z,49.02
2017-02-12T22:13:46.065Z,48.93
2017-02-12T22:14:55.845Z,48.93
2017-02-12T22:16:06.123Z,48.83
2017-02-12T22:17:15.884Z,48.93
2017-02-12T22:18:26.069Z,48.93
2017-02-12T22:19:35.826Z,48.93
2017-02-12T22:20:45.578Z,48.93
2017-02-12T22:21:55.396Z,49.02
2017-02-12T22:23:05.130Z,48.93
2017-02-12T22:24:15.347Z,48.73
2017-02-12T22:25:24.664Z,49.02
2017-02-12T22:26:34.417Z,48.54
2017-02-12T22:27:44.215Z,48.64
2017-02-12T22:28:53.963Z,48.44
2017-02-12T22:30:03.279Z,48.73
2017-02-12T22:31:13.463Z,48.64
2017-02-12T22:32:23.203Z,48.54
2017-02-12T22:33:33.012Z,48.73
2017-02-12T22:34:43.222Z,48.93
2017-02-12T22:35:52.978Z,48.64
2017-02-12T22:37:03.191Z,48.64
2017-02-12T22:38:12.973Z,48.64
2017-02-12T22:39:22.771Z,48.73
2017-02-12T22:40:32.966Z,48.61
2017-02-12T22:41:44.037Z,48.54
2017-02-12T22:42:53.356Z,48.54
2017-02-12T22:44:03.130Z,48.44
2017-02-12T22:45:12.924Z,48.44
2017-02-12T22:46:23.577Z,48.25
2017-02-12T22:47:33.347Z,48.73
2017-02-12T22:48:43.105Z,48.64
2017-02-12T22:49:52.861Z,48.54
2017-02-12T22:51:02.239Z,48.54
2017-02-12T22:52:11.557Z,48.64
2017-02-12T22:53:21.311Z,48.25
2017-02-12T22:54:31.068Z,48.54
2017-02-12T22:55:41.708Z,48.64
2017-02-12T22:56:51.980Z,48.64
2017-02-12T22:58:01.278Z,48.73
2017-02-12T22:59:10.598Z,48.71
2017-02-12T23:00:20.792Z,49.02
2017-02-12T23:01:30.557Z,48.73
2017-02-12T23:02:40.800Z,48.73
2017-02-12T23:03:51.023Z,48.61
2017-02-12T23:05:00.332Z,48.52
2017-02-12T23:06:10.108Z,48.33
2017-02-12T23:07:20.283Z,48.52
2017-02-12T23:08:30.086Z,48.64
2017-02-12T23:09:40.288Z,48.61
2017-02-12T23:10:50.059Z,48.61
2017-02-12T23:11:59.393Z,48.71
2017-02-12T23:13:10.488Z,48.61
2017-02-12T23:14:20.745Z,48.42
2017-02-12T23:15:31.389Z,48.8
2017-02-12T23:16:41.596Z,48.23
2017-02-12T23:17:51.357Z,48.8
2017-02-12T23:19:00.671Z,48.71
2017-02-12T23:20:10.476Z,48.71
2017-02-12T23:21:20.240Z,49
2017-02-12T23:22:29.549Z,49.29
2017-02-12T23:23:38.856Z,49.38
2017-02-12T23:24:48.623Z,49.38
2017-02-12T23:25:59.474Z,49.38
2017-02-12T23:27:09.250Z,48.9
2017-02-12T23:28:19.454Z,49.29
2017-02-12T23:29:29.218Z,49.09
2017-02-12T23:30:39.006Z,49.09
2017-02-12T23:31:48.387Z,49.57
2017-02-12T23:32:58.136Z,49.38
2017-02-12T23:34:07.888Z,49.86
2017-02-12T23:35:17.211Z,49.66
2017-02-12T23:36:26.966Z,49.57
2017-02-12T23:37:37.221Z,49.66
2017-02-12T23:38:47.874Z,49.48
2017-02-12T23:39:57.652Z,49.76
2017-02-12T23:41:07.437Z,50.05
2017-02-12T23:42:17.198Z,49.57
2017-02-12T23:43:27.215Z,49.95
2017-02-12T23:44:36.968Z,49.86
2017-02-12T23:45:46.736Z,49.66
2017-02-12T23:46:56.927Z,50.34
2017-02-12T23:48:06.247Z,50.52
2017-02-12T23:49:16.477Z,50.52
2017-02-12T23:50:26.678Z,50.43
2017-02-12T23:51:36.435Z,50.05
2017-02-12T23:52:45.761Z,50.15
2017-02-12T23:53:55.954Z,50.24
2017-02-12T23:55:05.801Z,50.52
2017-02-12T23:56:16.869Z,50.34
2017-02-12T23:57:26.633Z,50.24
2017-02-12T23:58:36.834Z,50.52
2017-02-12T23:59:46.153Z,50.15
